createdAt,value
2023-02-04T00:01:23.507Z,82.26
2023-02-04T00:03:52.610Z,82.80
2023-02-04T00:06:20.441Z,82.11
2023-02-04T00:08:48.284Z,81.23
2023-02-04T00:11:16.518Z,81.81
2023-02-04T00:13:44.367Z,82.81
2023-02-04T00:16:12.521Z,81.98
2023-02-04T00:18:40.741Z,80.97
2023-02-04T00:21:08.580Z,81.43
2023-02-04T00:23:36.445Z,81.93
2023-02-04T00:26:04.785Z,80.59
2023-02-04T00:28:32.692Z,80.84
2023-02-04T00:31:00.643Z,81.00
2023-02-04T00:33:29.305Z,81.10
2023-02-04T00:35:57.203Z,81.82
2023-02-04T00:38:25.012Z,80.14
2023-02-04T00:40:53.259Z,79.52
2023-02-04T00:43:21.133Z,80.50
2023-02-04T00:45:49.277Z,80.96
2023-02-04T00:48:17.526Z,79.67
2023-02-04T00:50:45.452Z,80.49
2023-02-04T00:53:13.434Z,81.50
2023-02-04T00:55:41.806Z,79.51
2023-02-04T00:58:09.626Z,80.54
2023-02-04T01:00:37.502Z,79.42
2023-02-04T01:03:05.950Z,80.36
2023-02-04T01:05:33.937Z,80.47
2023-02-04T01:08:01.869Z,82.39
2023-02-04T01:10:30.297Z,81.79
2023-02-04T01:12:58.634Z,81.26
2023-02-04T01:15:28.019Z,81.31
2023-02-04T01:17:56.252Z,80.33
2023-02-04T01:20:24.121Z,81.31
2023-02-04T01:22:51.939Z,80.15
2023-02-04T01:25:20.356Z,80.35
2023-02-04T01:27:48.375Z,79.23
2023-02-04T01:30:16.905Z,79.25
2023-02-04T01:32:45.232Z,79.92
2023-02-04T01:35:14.523Z,80.19
2023-02-04T01:37:42.357Z,79.77
2023-02-04T01:40:11.672Z,78.75
2023-02-04T01:42:39.772Z,78.46
2023-02-04T01:45:09.622Z,78.47
2023-02-04T01:47:38.389Z,79.13
2023-02-04T01:50:07.426Z,78.87
2023-02-04T01:52:37.570Z,78.45
2023-02-04T01:55:13.408Z,77.10
2023-02-04T01:57:42.043Z,75.75
2023-02-04T02:00:16.481Z,76.19
2023-02-04T02:02:50.774Z,76.29
2023-02-04T02:05:38.111Z,75.96
2023-02-04T02:08:07.229Z,74.32
2023-02-04T02:10:36.086Z,75.72
2023-02-04T02:13:06.002Z,73.55
2023-02-04T02:15:34.354Z,74.01
2023-02-04T02:18:02.632Z,74.89
2023-02-04T02:20:30.926Z,75.57
2023-02-04T02:23:23.071Z,74.80
2023-02-04T02:25:51.673Z,74.36
2023-02-04T02:28:21.986Z,75.57
2023-02-04T02:30:50.253Z,74.80
2023-02-04T02:33:20.778Z,74.41
2023-02-04T02:35:49.163Z,73.75
2023-02-04T02:38:18.887Z,74.02
2023-02-04T02:40:47.870Z,74.08
2023-02-04T02:43:18.941Z,74.45
2023-02-04T02:45:47.842Z,73.86
2023-02-04T02:48:15.910Z,74.99
2023-02-04T02:50:44.356Z,74.37
2023-02-04T02:53:14.250Z,73.89
2023-02-04T02:55:43.191Z,73.42
2023-02-04T02:58:34.738Z,73.38
2023-02-04T03:01:05.696Z,73.80
2023-02-04T03:03:40.140Z,73.68
2023-02-04T03:06:12.806Z,74.10
2023-02-04T03:08:41.155Z,73.41
2023-02-04T03:11:09.623Z,73.92
2023-02-04T03:13:37.869Z,75.09
2023-02-04T03:16:06.721Z,73.27
2023-02-04T03:18:36.166Z,73.43
2023-02-04T03:21:05.113Z,74.14
2023-02-04T03:23:36.957Z,73.65
2023-02-04T03:26:05.726Z,75.03
2023-02-04T03:28:34.376Z,75.66
2023-02-04T03:31:03.293Z,76.50
2023-02-04T03:33:31.957Z,75.47
2023-02-04T03:35:59.806Z,74.92
2023-02-04T03:38:28.197Z,75.90
2023-02-04T03:40:56.512Z,76.10
2023-02-04T03:43:24.298Z,76.46
2023-02-04T03:45:52.288Z,77.44
2023-02-04T03:48:20.500Z,77.17
2023-02-04T03:50:48.317Z,77.15
2023-02-04T03:53:16.142Z,76.93
2023-02-04T03:55:44.372Z,78.19
2023-02-04T03:58:12.223Z,78.51
2023-02-04T04:00:40.102Z,78.01
2023-02-04T04:03:08.417Z,78.26
2023-02-04T04:05:36.361Z,80.12
2023-02-04T04:08:04.282Z,78.62
2023-02-04T04:10:32.827Z,77.77
2023-02-04T04:13:00.872Z,77.73
2023-02-04T04:15:28.733Z,78.17
2023-02-04T04:17:56.928Z,76.88
2023-02-04T04:20:29.368Z,76.82
2023-02-04T04:22:57.715Z,76.64
2023-02-04T04:25:25.608Z,76.89
2023-02-04T04:27:53.590Z,76.67
2023-02-04T04:30:21.977Z,76.27
2023-02-04T04:32:49.829Z,75.92
2023-02-04T04:35:17.698Z,76.15
2023-02-04T04:37:45.933Z,75.08
2023-02-04T04:40:13.922Z,74.23
2023-02-04T04:42:41.899Z,73.01
2023-02-04T04:45:11.264Z,73.58
2023-02-04T04:47:39.092Z,72.78
2023-02-04T04:50:07.509Z,71.77
2023-02-04T04:52:35.709Z,74.36
2023-02-04T04:55:04.196Z,74.67
2023-02-04T04:57:32.155Z,74.63
2023-02-04T05:00:00.416Z,72.90
2023-02-04T05:02:28.253Z,73.40
2023-02-04T05:04:56.141Z,76.04
2023-02-04T05:07:24.832Z,76.00
2023-02-04T05:09:52.701Z,74.71
2023-02-04T05:12:20.662Z,75.24
2023-02-04T05:14:48.964Z,75.18
2023-02-04T05:17:16.839Z,74.58
2023-02-04T05:19:44.854Z,73.87
2023-02-04T05:22:13.534Z,74.76
2023-02-04T05:24:42.506Z,74.61
2023-02-04T05:27:10.364Z,76.00
2023-02-04T05:29:38.660Z,74.58
2023-02-04T05:32:06.501Z,74.49
2023-02-04T05:34:34.418Z,74.97
2023-02-04T05:37:02.546Z,74.19
2023-02-04T05:39:30.386Z,75.72
2023-02-04T05:41:58.277Z,75.67
2023-02-04T05:44:27.541Z,75.72
2023-02-04T05:46:55.571Z,78.75
2023-02-04T05:49:24.932Z,80.59
2023-02-04T05:51:53.201Z,83.17
2023-02-04T05:54:21.050Z,83.58
2023-02-04T05:56:48.940Z,83.91
2023-02-04T05:59:17.141Z,82.89
2023-02-04T06:01:45.022Z,81.94
2023-02-04T06:04:13.528Z,80.25
2023-02-04T10:03:29.588Z,51.17
2023-02-04T10:05:58.296Z,51.17
2023-02-04T10:08:30.585Z,55.71
2023-02-04T10:10:59.084Z,57.19
2023-02-04T10:13:35.215Z,60.31
2023-02-04T10:16:06.166Z,62.86
2023-02-04T10:18:34.610Z,63.01
2023-02-04T10:21:17.741Z,64.81
2023-02-04T10:23:49.286Z,65.50
2023-02-04T10:26:18.169Z,65.35
2023-02-04T10:28:46.496Z,66.04
2023-02-04T10:31:29.864Z,66.87
2023-02-04T10:34:21.037Z,67.49
2023-02-04T10:36:58.591Z,68.50
2023-02-04T10:39:30.742Z,67.60
2023-02-04T10:42:03.208Z,67.03
2023-02-04T10:44:34.020Z,65.21
2023-02-04T10:47:15.640Z,66.30
2023-02-04T10:50:19.760Z,65.05
2023-02-04T10:53:28.185Z,63.40
2023-02-04T10:55:57.078Z,62.54
2023-02-04T10:58:28.021Z,63.99
2023-02-04T11:00:56.796Z,63.88
2023-02-04T11:03:27.539Z,64.07
2023-02-04T11:05:58.485Z,64.89
2023-02-04T11:08:27.962Z,64.35
2023-02-04T11:11:01.303Z,64.18
2023-02-04T11:13:58.402Z,62.74
2023-02-04T11:16:30.545Z,64.64
2023-02-04T11:19:07.601Z,62.08
2023-02-04T11:21:35.323Z,61.94
2023-02-04T11:24:22.946Z,59.93
2023-02-04T11:26:53.288Z,58.36
2023-02-04T11:29:38.340Z,57.29
2023-02-04T11:32:36.380Z,58.29
2023-02-04T11:35:13.643Z,56.53
2023-02-04T11:37:43.713Z,54.45
2023-02-04T11:40:30.579Z,53.26
2023-02-04T11:43:14.155Z,56.08
2023-02-04T11:45:43.038Z,55.03
2023-02-04T11:48:21.288Z,54.96
2023-02-04T11:51:00.073Z,54.68
2023-02-04T11:53:32.413Z,54.61
2023-02-04T11:56:01.226Z,54.34
2023-02-04T11:58:31.300Z,52.58
2023-02-04T12:00:59.618Z,51.12
2023-02-04T12:03:30.823Z,50.89
2023-02-04T12:05:59.672Z,53.19
2023-02-04T12:08:32.547Z,51.74
2023-02-04T12:11:29.405Z,52.84
2023-02-04T12:13:59.816Z,52.08
2023-02-04T12:16:27.752Z,52.05
2023-02-04T12:18:55.803Z,53.72
2023-02-04T12:21:24.049Z,55.19
2023-02-04T12:23:51.945Z,54.60
2023-02-04T12:26:19.842Z,55.74
2023-02-04T12:28:48.031Z,55.21
2023-02-04T12:31:20.594Z,55.95
2023-02-04T12:33:54.607Z,54.87
2023-02-04T12:36:22.619Z,55.53
2023-02-04T12:38:50.905Z,56.65
2023-02-04T12:41:20.149Z,56.80
2023-02-04T12:43:50.771Z,55.77
2023-02-04T12:46:19.182Z,56.17
2023-02-04T12:48:47.796Z,54.02
2023-02-04T12:51:15.953Z,54.58
2023-02-04T12:53:44.434Z,54.64
2023-02-04T12:56:12.301Z,55.45
2023-02-04T12:58:40.190Z,53.67
2023-02-04T13:01:08.495Z,54.77
2023-02-04T13:03:36.531Z,56.88
2023-02-04T13:06:04.801Z,57.17
2023-02-04T13:08:33.241Z,57.64
2023-02-04T13:11:01.146Z,58.21
2023-02-04T13:13:29.298Z,58.67
2023-02-04T13:15:57.639Z,57.27
2023-02-04T13:18:25.478Z,55.28
2023-02-04T13:20:53.347Z,56.91
2023-02-04T13:23:21.636Z,58.13
2023-02-04T13:25:49.762Z,58.19
2023-02-04T13:28:18.294Z,56.88
2023-02-04T13:30:46.588Z,55.53
2023-02-04T13:33:14.564Z,55.45
2023-02-04T13:35:42.565Z,54.72
2023-02-04T13:38:10.984Z,54.34
2023-02-04T13:40:39.528Z,55.74
2023-02-04T13:43:07.433Z,53.78
2023-02-04T13:45:37.113Z,52.38
2023-02-04T13:48:05.134Z,52.37
2023-02-04T13:50:33.381Z,48.66
2023-02-04T13:53:01.804Z,48.80
2023-02-04T13:55:29.753Z,48.17
2023-02-04T13:57:57.772Z,49.25
2023-02-04T14:00:26.066Z,49.55
2023-02-04T14:02:54.469Z,48.76
2023-02-04T14:05:22.562Z,50.90
2023-02-04T14:07:50.540Z,50.31
2023-02-04T14:10:19.449Z,51.87
2023-02-04T14:12:47.848Z,52.85
2023-02-04T14:15:16.284Z,51.41
2023-02-04T14:17:44.600Z,51.55
2023-02-04T14:20:12.799Z,53.16
2023-02-04T14:22:40.980Z,53.44
2023-02-04T14:25:10.463Z,54.73
2023-02-04T14:27:42.310Z,52.12
2023-02-04T14:30:17.192Z,51.72
2023-02-04T14:32:45.113Z,50.54
2023-02-04T14:35:13.459Z,51.19
2023-02-04T14:37:41.357Z,51.61
2023-02-04T14:40:10.974Z,53.34
2023-02-04T14:42:39.742Z,52.41
2023-02-04T14:45:09.051Z,53.34
2023-02-04T14:47:37.917Z,53.66
2023-02-04T14:50:08.920Z,53.71
2023-02-04T14:52:36.789Z,53.91
2023-02-04T14:55:04.814Z,54.04
2023-02-04T14:57:33.009Z,55.27
2023-02-04T15:00:00.887Z,55.38
2023-02-04T15:02:29.017Z,56.52
2023-02-04T15:04:57.377Z,57.17
2023-02-04T15:07:28.382Z,57.90
2023-02-04T15:09:56.341Z,58.87
2023-02-04T15:12:24.741Z,58.48
2023-02-04T15:14:52.911Z,59.91
2023-02-04T15:17:20.926Z,59.69
2023-02-04T15:19:49.156Z,58.58
2023-02-04T15:22:17.220Z,60.49
2023-02-04T15:24:45.153Z,60.72
2023-02-04T15:27:13.425Z,61.35
2023-02-04T15:29:41.320Z,60.92
2023-02-04T15:32:19.402Z,61.02
2023-02-04T15:34:47.768Z,61.09
2023-02-04T15:37:16.308Z,59.57
2023-02-04T15:39:44.175Z,61.66
2023-02-04T15:42:12.454Z,62.08
2023-02-04T15:44:40.397Z,62.61
2023-02-04T15:47:08.255Z,63.49
2023-02-04T15:49:36.600Z,62.57
2023-02-04T15:52:05.822Z,61.66
2023-02-04T15:54:39.202Z,60.53
2023-02-04T15:57:07.098Z,60.70
2023-02-04T15:59:34.941Z,60.75
2023-02-04T16:02:03.221Z,60.31
2023-02-04T16:04:31.442Z,59.83
2023-02-04T16:06:59.618Z,60.67
2023-02-04T16:09:27.650Z,60.05
2023-02-04T16:11:55.880Z,59.93
2023-02-04T16:14:23.878Z,60.30
2023-02-04T16:16:52.059Z,60.59
2023-02-04T16:19:20.386Z,60.84
2023-02-04T16:21:48.317Z,61.79
2023-02-04T16:24:18.617Z,62.81
2023-02-04T16:26:47.343Z,61.64
2023-02-04T16:29:15.352Z,60.81
2023-02-04T16:31:43.339Z,60.53
2023-02-04T16:34:11.678Z,61.03
2023-02-04T16:36:39.770Z,61.33
2023-02-04T16:39:07.727Z,60.00
2023-02-04T16:41:36.098Z,60.62
2023-02-04T16:44:04.029Z,59.24
2023-02-04T16:46:34.049Z,59.98
2023-02-04T16:49:02.501Z,59.80
2023-02-04T16:51:31.236Z,59.51
2023-02-04T16:53:59.320Z,60.56
2023-02-04T16:56:35.193Z,61.50
2023-02-04T16:59:05.337Z,61.13
2023-02-04T17:01:33.723Z,61.78
2023-02-04T17:04:01.724Z,61.87
2023-02-04T17:06:31.192Z,61.83
2023-02-04T17:08:59.738Z,61.35
2023-02-04T17:11:31.647Z,60.72
2023-02-04T17:14:10.982Z,60.06
2023-02-04T17:16:39.245Z,60.03
2023-02-04T17:19:07.616Z,59.30
2023-02-04T17:21:35.936Z,59.83
2023-02-04T17:24:04.536Z,59.72
2023-02-04T17:26:37.645Z,58.73
2023-02-04T17:29:11.723Z,58.52
2023-02-04T17:31:40.879Z,59.08
2023-02-04T17:34:09.223Z,59.08
2023-02-04T17:36:37.303Z,59.33
2023-02-04T17:39:06.255Z,58.55
2023-02-04T17:41:34.489Z,58.80
2023-02-04T17:44:03.554Z,59.31
2023-02-04T17:46:32.120Z,59.93
2023-02-04T17:49:00.123Z,60.24
2023-02-04T17:51:28.156Z,60.05
2023-02-04T17:53:56.452Z,59.76
2023-02-04T17:56:25.243Z,59.55
2023-02-04T17:58:56.195Z,59.21
2023-02-04T18:01:25.463Z,59.41
2023-02-04T18:03:54.609Z,59.40
2023-02-04T18:06:27.355Z,59.93
2023-02-04T18:09:01.767Z,58.96
2023-02-04T18:11:33.148Z,58.84
2023-02-04T18:14:10.954Z,58.00
2023-02-04T18:16:39.974Z,58.32
2023-02-04T18:19:27.800Z,57.87
2023-02-04T18:21:55.874Z,57.18
2023-02-04T18:24:33.992Z,57.30
2023-02-04T18:27:13.409Z,55.87
2023-02-04T18:29:44.708Z,56.44
2023-02-04T18:32:15.792Z,56.71
2023-02-04T18:34:46.971Z,56.29
2023-02-04T18:37:36.390Z,56.58
2023-02-04T18:40:10.891Z,57.01
2023-02-04T18:42:42.102Z,57.07
2023-02-04T18:45:20.210Z,56.71
2023-02-04T18:47:49.292Z,56.77
2023-02-04T18:50:23.918Z,56.31
2023-02-04T18:52:52.518Z,57.83
2023-02-04T18:55:33.040Z,57.44
2023-02-04T18:58:19.257Z,56.44
2023-02-04T19:00:54.497Z,57.84
2023-02-04T19:03:32.662Z,57.88
2023-02-04T19:06:03.097Z,56.92
2023-02-04T19:08:45.019Z,58.26
2023-02-04T19:11:34.651Z,57.53
2023-02-04T19:14:12.162Z,58.50
2023-02-04T19:16:42.467Z,59.92
2023-02-04T19:19:37.378Z,60.67
2023-02-04T19:22:22.901Z,60.81
2023-02-04T19:25:00.102Z,60.79
2023-02-04T19:27:35.067Z,61.37
2023-02-04T19:30:27.573Z,61.77
2023-02-04T19:32:58.426Z,62.78
2023-02-04T19:35:30.608Z,63.46
2023-02-04T19:38:28.582Z,64.04
2023-02-04T19:40:56.914Z,65.55
2023-02-04T19:43:43.218Z,65.43
2023-02-04T19:46:24.248Z,66.03
2023-02-04T19:48:52.828Z,65.98
2023-02-04T19:51:25.907Z,65.76
2023-02-04T19:54:20.286Z,65.03
2023-02-04T19:56:48.099Z,65.14
2023-02-04T19:59:30.533Z,65.40
2023-02-04T20:02:07.706Z,65.10
2023-02-04T20:04:42.769Z,65.23
2023-02-04T20:07:25.273Z,64.60
2023-02-04T20:10:29.560Z,66.10
2023-02-04T20:13:10.359Z,65.25
2023-02-04T20:15:38.900Z,65.54
2023-02-04T20:18:20.106Z,65.86
2023-02-04T20:20:48.521Z,65.49
2023-02-04T20:23:22.178Z,64.83
2023-02-04T20:25:50.693Z,65.75
2023-02-04T20:28:49.039Z,65.90
2023-02-04T20:31:29.294Z,65.22
2023-02-04T20:33:59.554Z,64.65
2023-02-04T20:36:41.126Z,65.24
2023-02-04T20:39:09.046Z,65.91
2023-02-04T20:41:38.229Z,66.38
2023-02-04T20:44:17.041Z,66.83
2023-02-04T20:46:45.366Z,65.86
2023-02-04T20:49:23.001Z,65.66
2023-02-04T20:51:54.266Z,65.49
2023-02-04T20:54:22.084Z,65.60
2023-02-04T20:56:49.973Z,65.12
2023-02-04T20:59:27.049Z,65.71
2023-02-04T21:01:56.247Z,65.39
2023-02-04T21:04:38.922Z,65.67
2023-02-04T21:07:14.422Z,64.97
2023-02-04T21:09:42.710Z,65.55
2023-02-04T21:12:10.848Z,65.86
2023-02-04T21:14:38.848Z,65.63
2023-02-04T21:17:07.690Z,65.94
2023-02-04T21:19:35.704Z,65.69
2023-02-04T21:22:03.606Z,66.21
2023-02-04T21:24:32.106Z,66.09
2023-02-04T21:26:59.978Z,65.82
2023-02-04T21:29:27.853Z,66.02
2023-02-04T21:31:56.124Z,66.04
2023-02-04T21:34:24.158Z,66.28
2023-02-04T21:36:52.128Z,66.07
2023-02-04T21:39:20.998Z,65.49
2023-02-04T21:42:08.919Z,65.36
2023-02-04T21:44:38.344Z,64.97
2023-02-04T21:47:06.321Z,64.65
2023-02-04T21:49:34.276Z,64.21
2023-02-04T21:52:02.482Z,64.97
2023-02-04T21:54:30.372Z,64.36
2023-02-04T21:57:02.174Z,63.67
2023-02-04T21:59:31.035Z,64.10
2023-02-04T22:01:59.102Z,64.22
2023-02-04T22:04:27.435Z,64.68
2023-02-04T22:06:56.181Z,64.19
2023-02-04T22:09:24.464Z,64.47
2023-02-04T22:11:52.790Z,65.23
2023-02-04T22:14:39.346Z,65.31
2023-02-04T22:17:07.696Z,65.57
2023-02-04T22:19:35.612Z,66.04
2023-02-04T22:22:03.588Z,65.71
2023-02-04T22:24:31.921Z,65.82
2023-02-04T22:26:59.807Z,66.78
2023-02-04T22:29:30.196Z,66.21
2023-02-04T22:31:58.451Z,65.39
2023-02-04T22:34:26.972Z,66.16
2023-02-04T22:36:55.711Z,65.46
2023-02-04T22:39:24.200Z,65.92
2023-02-04T22:41:52.992Z,65.74
2023-02-04T22:44:20.931Z,65.37
2023-02-04T22:46:49.427Z,66.11
2023-02-04T22:49:17.272Z,66.32
2023-02-04T22:51:45.158Z,65.42
2023-02-04T22:54:13.374Z,64.88
2023-02-04T22:56:41.177Z,65.71
2023-02-04T22:59:09.072Z,65.24
2023-02-04T23:01:37.371Z,65.02
2023-02-04T23:04:05.337Z,64.81
2023-02-04T23:06:33.684Z,65.67
2023-02-04T23:09:01.977Z,65.24
2023-02-04T23:11:29.844Z,64.92
2023-02-04T23:13:57.686Z,64.84
2023-02-04T23:16:26.198Z,65.71
2023-02-04T23:18:54.402Z,65.16
2023-02-04T23:21:23.099Z,64.82
2023-02-04T23:23:51.746Z,65.26
2023-02-04T23:26:20.018Z,66.05
2023-02-04T23:28:47.862Z,65.37
2023-02-04T23:31:16.192Z,65.58
2023-02-04T23:33:44.030Z,65.03
2023-02-04T23:36:12.170Z,64.47
2023-02-04T23:38:40.367Z,64.76
2023-02-04T23:41:08.256Z,64.61
2023-02-04T23:43:36.222Z,64.76
2023-02-04T23:46:04.714Z,65.03
2023-02-04T23:48:32.656Z,64.69
2023-02-04T23:51:00.509Z,64.50
2023-02-04T23:53:28.741Z,64.51
2023-02-04T23:55:56.653Z,65.60
2023-02-04T23:58:24.482Z,64.68
